Time;durP1;ratioP1;P1;durP2;ratioP2;P2;SDS_P1;SDS_P2;PMS_P1;PMS_P2;Temp;Humidity;BMP_temperature;BMP_pressure;BME280_temperature;BME280_humidity;BME280_pressure;Samples;Min_cycle;Max_cycle;Signal;HPM_P1;HPM_P2
2021/01/13 00:00:16;;;;;;;11.30;4.50;;;4.80;99.90;;;;;;5868347;24;20458;-82
2021/01/13 00:03:03;;;;;;;9.53;5.37;;;4.70;99.90;;;;;;5862525;24;20411;-81
2021/01/13 00:05:30;;;;;;;7.13;4.57;;;4.80;99.90;;;;;;5867210;24;20523;-81
2021/01/13 00:07:59;;;;;;;11.30;4.60;;;4.70;99.90;;;;;;5881789;24;20818;-80
2021/01/13 00:10:31;;;;;;;10.40;5.17;;;4.80;99.90;;;;;;5907521;23;20438;-82
2021/01/13 00:13:06;;;;;;;8.83;5.60;;;4.70;99.90;;;;;;6006202;23;20499;-81
2021/01/13 00:15:48;;;;;;;8.60;4.70;;;4.70;99.90;;;;;;6004847;23;20415;-81
2021/01/13 00:18:25;;;;;;;5.90;4.30;;;4.70;99.90;;;;;;6005448;23;20451;-80
2021/01/13 00:21:03;;;;;;;10.40;4.13;;;4.80;99.90;;;;;;5978496;23;20419;-79
2021/01/13 00:23:37;;;;;;;8.13;4.63;;;4.70;99.90;;;;;;5979701;23;20495;-78
2021/01/13 00:26:25;;;;;;;8.57;4.27;;;4.70;99.90;;;;;;6025129;23;21153;-81
2021/01/13 00:29:18;;;;;;;8.70;4.53;;;4.70;99.90;;;;;;6094088;23;20494;-80
2021/01/13 00:31:57;;;;;;;8.73;4.47;;;4.70;99.90;;;;;;6099959;23;20726;-81
2021/01/13 00:34:31;;;;;;;9.83;4.70;;;4.70;99.90;;;;;;6099539;23;20973;-80
2021/01/13 00:37:20;;;;;;;17.20;4.63;;;4.70;99.90;;;;;;6125133;23;20494;-81
2021/01/13 00:39:55;;;;;;;8.10;5.00;;;4.70;99.90;;;;;;6123966;23;20795;-81
2021/01/13 00:42:47;;;;;;;8.83;4.37;;;4.80;99.90;;;;;;6097379;23;20404;-79
2021/01/13 00:45:19;;;;;;;5.70;4.40;;;4.80;99.90;;;;;;6097958;23;20484;-81
2021/01/13 00:48:01;;;;;;;9.30;4.53;;;4.80;99.90;;;;;;6121530;23;20436;-81
2021/01/13 00:50:30;;;;;;;8.37;4.27;;;4.70;99.90;;;;;;6120954;23;20420;-80
2021/01/13 00:53:15;;;;;;;6.43;3.97;;;4.70;99.90;;;;;;6120646;23;20408;-80
2021/01/13 00:55:51;;;;;;;10.10;4.93;;;4.70;99.90;;;;;;6120064;23;20432;-82
2021/01/13 00:58:37;;;;;;;11.07;4.50;;;4.70;99.90;;;;;;6119854;23;20471;-80
2021/01/13 01:01:07;;;;;;;9.47;4.60;;;4.70;99.90;;;;;;6120241;23;20423;-79
2021/01/13 01:03:38;;;;;;;6.87;3.90;;;4.70;99.90;;;;;;6117703;23;20519;-79
2021/01/13 01:06:14;;;;;;;7.53;4.57;;;4.70;99.90;;;;;;6120168;23;20396;-80
2021/01/13 01:08:45;;;;;;;5.93;4.30;;;4.70;99.90;;;;;;6119871;23;20760;-79
2021/01/13 01:11:44;;;;;;;9.47;4.87;;;4.70;99.90;;;;;;6090485;23;20840;-79
2021/01/13 01:14:29;;;;;;;7.23;4.53;;;4.60;99.90;;;;;;6108906;23;20450;-79
2021/01/13 01:16:56;;;;;;;8.13;5.23;;;4.60;99.90;;;;;;6120775;23;20422;-79
2021/01/13 01:19:30;;;;;;;8.10;4.80;;;4.60;99.90;;;;;;6121381;23;20800;-79
2021/01/13 01:21:58;;;;;;;10.77;6.40;;;4.60;99.90;;;;;;6121469;23;20423;-79
2021/01/13 01:24:25;;;;;;;8.40;4.60;;;4.60;99.90;;;;;;6121957;23;20447;-80
2021/01/13 01:26:51;;;;;;;16.20;7.40;;;4.60;99.90;;;;;;6120288;23;20412;-80
2021/01/13 01:29:18;;;;;;;7.53;4.87;;;4.60;99.90;;;;;;6099259;23;20445;-80
2021/01/13 01:31:49;;;;;;;11.60;5.00;;;4.50;99.90;;;;;;6111143;23;20444;-79
2021/01/13 01:34:18;;;;;;;14.57;6.20;;;4.50;99.90;;;;;;6090086;23;20444;-78
2021/01/13 01:36:55;;;;;;;9.47;5.80;;;4.50;99.90;;;;;;6088252;23;20781;-81
2021/01/13 01:39:24;;;;;;;6.90;5.40;;;4.50;99.90;;;;;;6096453;23;20479;-79
2021/01/13 01:41:57;;;;;;;9.87;5.33;;;4.50;99.90;;;;;;6072581;23;20419;-79
2021/01/13 01:44:24;;;;;;;8.67;5.00;;;4.50;99.90;;;;;;6113376;23;20464;-79
2021/01/13 01:47:08;;;;;;;16.53;5.40;;;4.60;99.90;;;;;;6078074;23;20467;-79
2021/01/13 01:49:40;;;;;;;8.83;4.83;;;4.50;99.90;;;;;;6095264;23;20885;-79
2021/01/13 01:52:16;;;;;;;13.27;5.30;;;4.50;99.90;;;;;;6097886;23;20412;-82
2021/01/13 01:55:03;;;;;;;9.23;5.27;;;4.50;99.90;;;;;;6095851;23;20436;-80
2021/01/13 01:57:35;;;;;;;7.53;5.30;;;4.50;99.90;;;;;;6071338;23;20960;-81
2021/01/13 02:00:09;;;;;;;7.10;4.60;;;4.60;99.90;;;;;;6096353;23;20404;-80
2021/01/13 02:02:55;;;;;;;8.70;5.40;;;4.60;99.90;;;;;;6096273;23;20436;-80
2021/01/13 02:05:23;;;;;;;12.10;6.20;;;4.60;99.90;;;;;;6068919;23;20444;-80
2021/01/13 02:07:52;;;;;;;12.37;5.80;;;4.60;99.90;;;;;;6070889;23;20520;-80
2021/01/13 02:10:30;;;;;;;11.10;5.10;;;4.60;99.90;;;;;;6098975;23;20473;-80
2021/01/13 02:13:06;;;;;;;8.23;5.00;;;4.60;99.90;;;;;;6072703;23;20400;-80
2021/01/13 02:15:35;;;;;;;11.67;6.17;;;4.60;99.90;;;;;;6097001;23;20420;-79
2021/01/13 02:18:04;;;;;;;8.40;5.50;;;4.60;99.90;;;;;;6097995;23;20464;-79
2021/01/13 02:20:31;;;;;;;9.33;5.00;;;4.60;99.90;;;;;;6072098;23;20417;-79
2021/01/13 02:23:03;;;;;;;7.20;5.03;;;4.60;99.90;;;;;;6078989;23;20480;-79
2021/01/13 02:25:45;;;;;;;13.40;5.83;;;4.60;99.90;;;;;;6116379;23;20496;-78
2021/01/13 02:28:19;;;;;;;11.17;5.30;;;4.60;99.90;;;;;;6117065;23;20481;-80
2021/01/13 02:31:04;;;;;;;10.00;5.47;;;4.60;99.90;;;;;;6086039;23;20389;-81
2021/01/13 02:33:39;;;;;;;7.27;4.90;;;4.60;99.90;;;;;;6101327;23;20464;-80
2021/01/13 02:36:29;;;;;;;9.53;4.57;;;4.60;99.90;;;;;;6086742;23;20420;-79
2021/01/13 02:38:59;;;;;;;13.80;5.90;;;4.60;99.90;;;;;;6108797;23;20385;-78
2021/01/13 02:41:29;;;;;;;18.60;6.93;;;4.60;99.90;;;;;;6118257;23;20468;-80
2021/01/13 02:43:58;;;;;;;11.53;5.07;;;4.60;99.90;;;;;;6113518;23;20449;-79
2021/01/13 02:46:54;;;;;;;11.40;5.70;;;4.60;99.90;;;;;;6071617;23;20405;-78
2021/01/13 02:49:26;;;;;;;10.00;5.10;;;4.60;99.90;;;;;;6094235;23;20409;-76
2021/01/13 02:51:55;;;;;;;11.00;4.73;;;4.50;99.90;;;;;;6095383;23;20496;-80
2021/01/13 02:54:27;;;;;;;6.07;4.70;;;4.50;99.90;;;;;;6068950;23;20447;-80
2021/01/13 02:57:21;;;;;;;7.30;4.93;;;4.50;99.90;;;;;;6093683;23;20412;-80
2021/01/13 02:59:49;;;;;;;16.10;4.73;;;4.50;99.90;;;;;;6089880;23;20456;-79
2021/01/13 03:02:16;;;;;;;11.10;5.10;;;4.50;99.90;;;;;;6093676;23;20424;-79
2021/01/13 03:04:43;;;;;;;8.50;5.17;;;4.40;99.90;;;;;;6091983;23;20521;-79
2021/01/13 03:07:12;;;;;;;6.70;4.73;;;4.40;99.90;;;;;;6067337;23;20419;-80
2021/01/13 03:09:46;;;;;;;10.80;4.60;;;4.50;99.90;;;;;;6092552;23;20413;-79
2021/01/13 03:12:27;;;;;;;9.10;5.80;;;4.40;99.90;;;;;;6091392;23;20868;-79
2021/01/13 03:14:58;;;;;;;16.60;6.23;;;4.40;99.90;;;;;;6092370;23;20451;-80
2021/01/13 03:17:36;;;;;;;10.33;5.63;;;4.40;99.90;;;;;;6091655;23;20401;-81
2021/01/13 03:20:20;;;;;;;13.33;6.87;;;4.40;99.90;;;;;;6092669;23;20483;-79
2021/01/13 03:22:58;;;;;;;8.37;5.73;;;4.40;99.90;;;;;;6092589;23;20726;-81
2021/01/13 03:25:25;;;;;;;11.30;6.80;;;4.40;99.90;;;;;;6067149;23;20442;-82
2021/01/13 03:27:53;;;;;;;10.10;6.00;;;4.50;99.90;;;;;;6068624;23;20421;-81
2021/01/13 03:30:20;;;;;;;9.10;5.33;;;4.40;99.90;;;;;;6092378;23;20396;-80
2021/01/13 03:33:17;;;;;;;7.20;5.83;;;4.50;99.90;;;;;;6066321;23;20413;-78
2021/01/13 03:35:45;;;;;;;12.63;5.37;;;4.50;99.90;;;;;;6091219;23;20397;-82
2021/01/13 03:38:17;;;;;;;9.37;5.60;;;4.50;99.90;;;;;;6066660;23;20459;-82
2021/01/13 03:40:49;;;;;;;10.50;6.03;;;4.50;99.90;;;;;;6092644;23;20408;-82
2021/01/13 03:43:21;;;;;;;18.07;7.07;;;4.50;99.90;;;;;;6097558;23;20437;-81
2021/01/13 03:45:56;;;;;;;9.50;6.30;;;4.40;99.90;;;;;;6097953;23;20440;-81
2021/01/13 03:48:41;;;;;;;8.43;6.13;;;4.50;99.90;;;;;;6098572;23;20405;-82
2021/01/13 03:51:30;;;;;;;11.33;5.87;;;4.50;99.90;;;;;;6099812;23;20408;-81
2021/01/13 03:54:03;;;;;;;8.47;5.73;;;4.40;99.90;;;;;;6098423;23;20432;-81
2021/01/13 03:56:59;;;;;;;11.77;6.53;;;4.40;99.90;;;;;;6098937;23;20808;-80
2021/01/13 04:00:07;;;;;;;14.30;6.40;;;4.40;99.90;;;;;;6073124;23;20400;-81
2021/01/13 04:03:06;;;;;;;13.43;6.47;;;4.40;99.90;;;;;;6095936;23;20476;-79
2021/01/13 04:05:35;;;;;;;7.43;5.10;;;4.40;99.90;;;;;;6099060;23;20806;-80
2021/01/13 04:08:03;;;;;;;11.53;6.40;;;4.40;99.90;;;;;;6073009;23;20411;-81
2021/01/13 04:10:30;;;;;;;11.93;6.00;;;4.40;99.90;;;;;;6073026;23;20791;-81
2021/01/13 04:13:01;;;;;;;9.20;5.80;;;4.40;99.90;;;;;;6072901;23;20438;-79
2021/01/13 04:15:38;;;;;;;7.70;5.80;;;4.40;99.90;;;;;;6097793;23;20511;-80
2021/01/13 04:18:09;;;;;;;13.20;6.57;;;4.40;99.90;;;;;;6097893;23;20392;-80
2021/01/13 04:20:36;;;;;;;9.10;6.10;;;4.40;99.90;;;;;;6098987;23;20911;-81
2021/01/13 04:23:06;;;;;;;12.10;7.00;;;4.40;99.90;;;;;;6074450;23;20413;-80
2021/01/13 04:25:33;;;;;;;11.17;6.97;;;4.40;99.90;;;;;;6071831;23;20451;-78
2021/01/13 04:28:00;;;;;;;6.23;5.63;;;4.40;99.90;;;;;;6106699;23;20416;-79
2021/01/13 04:30:27;;;;;;;11.80;6.50;;;4.40;99.90;;;;;;6103027;23;20419;-82
2021/01/13 04:32:55;;;;;;;12.70;6.27;;;4.40;99.90;;;;;;6098903;23;20408;-80
2021/01/13 04:35:22;;;;;;;13.10;7.00;;;4.40;99.90;;;;;;6074318;23;20421;-81
2021/01/13 04:37:53;;;;;;;11.77;7.07;;;4.30;99.90;;;;;;6074412;23;20750;-80
2021/01/13 04:40:50;;;;;;;11.43;7.70;;;4.40;99.90;;;;;;6075140;23;20867;-82
2021/01/13 04:43:23;;;;;;;13.17;6.67;;;4.40;99.90;;;;;;6098315;23;20509;-82
2021/01/13 04:45:50;;;;;;;12.77;7.93;;;4.40;99.90;;;;;;6111084;23;20409;-80
2021/01/13 04:48:20;;;;;;;8.00;6.73;;;4.40;99.90;;;;;;6109458;23;20417;-79
2021/01/13 04:50:52;;;;;;;13.67;8.10;;;4.40;99.90;;;;;;6087451;23;20393;-79
2021/01/13 04:53:20;;;;;;;10.40;6.40;;;4.40;99.90;;;;;;6084294;23;20440;-79
2021/01/13 04:55:48;;;;;;;12.83;7.10;;;4.40;99.90;;;;;;6085718;23;20484;-79
2021/01/13 04:58:20;;;;;;;13.40;8.20;;;4.40;99.90;;;;;;6079780;23;20416;-80
2021/01/13 05:01:08;;;;;;;11.03;7.27;;;4.50;99.90;;;;;;6075193;23;20747;-82
2021/01/13 05:03:55;;;;;;;8.80;6.67;;;4.40;99.90;;;;;;6073463;23;20518;-81
2021/01/13 05:06:43;;;;;;;11.80;8.10;;;4.50;99.90;;;;;;6099844;23;20419;-81
2021/01/13 05:09:11;;;;;;;13.70;7.90;;;4.50;99.90;;;;;;6099266;23;20484;-77
2021/01/13 05:11:49;;;;;;;13.00;7.90;;;4.50;99.90;;;;;;6099346;23;20424;-79
2021/01/13 05:14:19;;;;;;;13.80;8.40;;;4.50;99.90;;;;;;6073890;23;20470;-82
2021/01/13 05:16:48;;;;;;;16.50;9.47;;;4.60;99.90;;;;;;6100169;23;20419;-82
2021/01/13 05:19:55;;;;;;;11.37;7.57;;;4.70;99.90;;;;;;6073545;23;20484;-82
2021/01/13 05:22:25;;;;;;;10.63;8.07;;;4.80;99.90;;;;;;6054514;23;20432;-81
2021/01/13 05:24:53;;;;;;;13.53;8.27;;;4.70;99.90;;;;;;6073504;23;20531;-80
2021/01/13 05:27:44;;;;;;;14.13;8.33;;;4.60;99.90;;;;;;6077370;23;20498;-80
2021/01/13 05:30:11;;;;;;;13.67;8.97;;;4.60;99.90;;;;;;6075472;23;20477;-81
2021/01/13 05:32:40;;;;;;;15.17;8.80;;;4.60;99.90;;;;;;6106592;23;20416;-81
2021/01/13 05:35:09;;;;;;;10.90;8.77;;;4.60;99.90;;;;;;6102206;23;20444;-81
2021/01/13 05:37:53;;;;;;;11.03;9.33;;;4.60;99.90;;;;;;6077119;23;20741;-81
2021/01/13 05:40:20;;;;;;;14.33;8.50;;;4.60;99.90;;;;;;6102142;23;20412;-83
2021/01/13 05:42:48;;;;;;;13.00;8.90;;;4.60;99.90;;;;;;6099453;23;20444;-82
2021/01/13 05:45:14;;;;;;;19.43;8.33;;;4.70;99.90;;;;;;6072756;23;20527;-81
2021/01/13 05:47:53;;;;;;;18.50;9.23;;;4.80;99.90;;;;;;6074365;23;20535;-81
2021/01/13 05:50:22;;;;;;;13.97;10.20;;;4.70;99.90;;;;;;6098891;23;20409;-81
2021/01/13 05:52:50;;;;;;;17.80;9.37;;;4.70;99.90;;;;;;6073518;23;20487;-80
2021/01/13 05:55:22;;;;;;;15.00;9.77;;;4.70;99.90;;;;;;6099016;23;20444;-83
2021/01/13 05:58:02;;;;;;;13.27;8.60;;;4.70;99.90;;;;;;6073984;23;20422;-81
2021/01/13 06:00:31;;;;;;;18.80;9.37;;;4.70;99.90;;;;;;6076706;23;20419;-80
2021/01/13 06:03:02;;;;;;;10.93;7.87;;;4.70;99.90;;;;;;6101883;23;20422;-81
2021/01/13 06:05:31;;;;;;;11.60;9.03;;;4.70;99.90;;;;;;6099217;23;20531;-82
2021/01/13 06:08:02;;;;;;;12.70;8.30;;;4.70;99.90;;;;;;6074476;23;20409;-82
2021/01/13 06:10:36;;;;;;;12.50;8.83;;;4.70;99.90;;;;;;6075278;23;20456;-81
2021/01/13 06:13:05;;;;;;;12.43;8.50;;;4.80;99.90;;;;;;6100756;23;20416;-81
2021/01/13 06:15:33;;;;;;;9.13;7.00;;;4.70;99.90;;;;;;6074252;23;20420;-80
2021/01/13 06:18:00;;;;;;;13.87;8.77;;;4.70;99.90;;;;;;6075728;23;20409;-82
2021/01/13 06:20:28;;;;;;;11.27;7.70;;;4.70;99.90;;;;;;6100836;23;20448;-81
2021/01/13 06:22:59;;;;;;;12.50;7.00;;;4.70;99.90;;;;;;6074764;23;20409;-80
2021/01/13 06:25:27;;;;;;;10.77;7.10;;;4.70;99.90;;;;;;6076408;23;20429;-79
2021/01/13 06:27:57;;;;;;;12.70;7.70;;;4.70;99.90;;;;;;6076863;23;20432;-79
2021/01/13 06:30:38;;;;;;;9.53;7.83;;;4.70;99.90;;;;;;6101489;23;20409;-81
2021/01/13 06:33:24;;;;;;;11.60;7.40;;;4.70;99.90;;;;;;6078144;23;20429;-80
2021/01/13 06:36:09;;;;;;;9.47;7.33;;;4.80;99.90;;;;;;6075984;23;20548;-81
2021/01/13 06:38:46;;;;;;;18.03;7.50;;;4.80;99.90;;;;;;6074860;23;20420;-81
2021/01/13 06:41:13;;;;;;;12.43;7.03;;;4.70;99.90;;;;;;6101703;23;20496;-80
2021/01/13 06:44:02;;;;;;;10.50;6.27;;;4.80;99.90;;;;;;6076801;23;20460;-77
2021/01/13 06:46:29;;;;;;;9.53;6.70;;;4.80;99.90;;;;;;6102640;23;20389;-80
2021/01/13 06:49:10;;;;;;;11.37;6.27;;;4.80;99.90;;;;;;6075735;23;20468;-82
2021/01/13 06:51:36;;;;;;;11.07;6.00;;;4.80;99.90;;;;;;6077382;23;20883;-81
2021/01/13 06:54:06;;;;;;;10.97;6.07;;;4.80;99.90;;;;;;6103818;23;20440;-78
2021/01/13 06:56:44;;;;;;;10.83;6.30;;;4.80;99.90;;;;;;6099918;23;20488;-81
2021/01/13 06:59:11;;;;;;;13.13;6.77;;;4.80;99.90;;;;;;6101018;23;20397;-80
2021/01/13 07:01:58;;;;;;;13.03;6.00;;;4.80;99.90;;;;;;6099858;23;20753;-80
2021/01/13 07:04:26;;;;;;;13.20;6.40;;;4.80;99.90;;;;;;6098848;23;20474;-80
2021/01/13 07:06:56;;;;;;;14.80;6.20;;;4.80;99.90;;;;;;6086498;23;20417;-79
2021/01/13 07:09:22;;;;;;;17.03;6.77;;;4.70;99.90;;;;;;6104459;23;20424;-82
2021/01/13 07:11:50;;;;;;;7.80;6.83;;;4.70;99.90;;;;;;6102354;23;20429;-80
2021/01/13 07:14:17;;;;;;;15.07;6.77;;;4.60;99.90;;;;;;6102150;23;20439;-81
2021/01/13 07:16:44;;;;;;;7.37;6.50;;;4.60;99.90;;;;;;6076770;23;20785;-79
2021/01/13 07:19:11;;;;;;;13.70;7.20;;;4.60;99.90;;;;;;6100602;23;21162;-81
2021/01/13 07:21:39;;;;;;;12.57;6.97;;;4.60;99.90;;;;;;6076379;23;20491;-81
2021/01/13 07:24:11;;;;;;;16.03;6.80;;;4.60;99.90;;;;;;6100684;23;20532;-80
2021/01/13 07:26:39;;;;;;;12.73;6.90;;;4.60;99.90;;;;;;6075755;23;20417;-81
2021/01/13 07:29:06;;;;;;;10.27;7.50;;;4.50;99.90;;;;;;6101722;23;20421;-80
2021/01/13 07:31:33;;;;;;;8.20;6.60;;;4.50;99.90;;;;;;6075826;23;20419;-81
2021/01/13 07:34:08;;;;;;;12.87;7.33;;;4.60;99.90;;;;;;6076496;23;20809;-81
2021/01/13 07:36:38;;;;;;;10.43;7.43;;;4.60;99.90;;;;;;6077781;23;20399;-80
2021/01/13 07:39:07;;;;;;;14.43;7.40;;;4.50;99.90;;;;;;6076243;23;20924;-81
2021/01/13 07:42:06;;;;;;;9.43;6.90;;;4.50;99.90;;;;;;6102625;23;20424;-81
2021/01/13 07:44:37;;;;;;;8.67;7.60;;;4.50;99.90;;;;;;6102836;23;20452;-82
2021/01/13 07:47:18;;;;;;;15.10;7.80;;;4.60;99.90;;;;;;6108011;23;20400;-81
2021/01/13 07:49:51;;;;;;;8.93;7.50;;;4.60;99.90;;;;;;6102636;23;20456;-82
2021/01/13 07:52:18;;;;;;;9.47;6.83;;;4.50;99.90;;;;;;6102084;23;20392;-82
2021/01/13 07:54:48;;;;;;;14.33;8.63;;;4.50;99.90;;;;;;6100331;23;20441;-81
2021/01/13 07:57:22;;;;;;;12.70;7.30;;;4.60;99.90;;;;;;6083044;23;20948;-78
2021/01/13 08:00:02;;;;;;;10.40;6.77;;;4.60;99.90;;;;;;6109481;23;20412;-79
2021/01/13 08:02:53;;;;;;;12.60;6.77;;;4.60;99.90;;;;;;6081348;23;20397;-80
2021/01/13 08:06:01;;;;;;;9.73;6.20;;;4.70;99.90;;;;;;6110896;23;20480;-81
2021/01/13 08:09:02;;;;;;;10.53;6.00;;;4.70;99.90;;;;;;6101930;23;20718;-80
2021/01/13 08:12:12;;;;;;;9.33;5.70;;;4.70;99.90;;;;;;6079208;23;20416;-79
2021/01/13 08:15:16;;;;;;;10.20;6.67;;;4.70;99.90;;;;;;6102302;23;20519;-82
2021/01/13 08:18:20;;;;;;;17.70;6.23;;;4.80;99.90;;;;;;6077368;23;20404;-80
2021/01/13 08:20:53;;;;;;;9.53;6.20;;;4.80;99.90;;;;;;6104028;23;20479;-81
2021/01/13 08:23:27;;;;;;;11.33;5.87;;;4.80;99.90;;;;;;6101865;23;20427;-82
2021/01/13 08:25:56;;;;;;;10.70;5.83;;;4.80;99.90;;;;;;6096049;23;20433;-79
2021/01/13 08:28:24;;;;;;;9.47;5.47;;;4.80;99.90;;;;;;6078997;23;20450;-78
2021/01/13 08:30:52;;;;;;;10.83;6.20;;;4.90;99.90;;;;;;6096731;23;20995;-78
2021/01/13 08:33:25;;;;;;;10.60;5.60;;;4.90;99.90;;;;;;6095776;23;20462;-79
2021/01/13 08:36:01;;;;;;;11.30;6.70;;;4.90;99.90;;;;;;6095661;23;20486;-82
2021/01/13 08:38:28;;;;;;;10.53;5.43;;;5.00;99.90;;;;;;6128384;23;20436;-79
2021/01/13 08:40:54;;;;;;;8.20;6.13;;;5.10;99.90;;;;;;6140635;23;20395;-81
2021/01/13 08:43:23;;;;;;;10.97;5.03;;;5.10;99.90;;;;;;6112330;23;20432;-80
2021/01/13 08:45:51;;;;;;;8.53;5.70;;;5.10;99.90;;;;;;6108201;23;20447;-80
2021/01/13 08:48:22;;;;;;;7.30;5.87;;;5.00;99.90;;;;;;6126051;23;20425;-80
2021/01/13 08:51:06;;;;;;;8.90;5.40;;;5.00;99.90;;;;;;6106924;23;20400;-79
2021/01/13 08:53:34;;;;;;;9.97;5.60;;;5.00;99.90;;;;;;6141209;23;20531;-80
2021/01/13 08:56:02;;;;;;;7.23;4.50;;;5.10;99.90;;;;;;6115621;23;20412;-79
2021/01/13 08:58:32;;;;;;;9.90;5.70;;;5.10;99.90;;;;;;6140750;23;20459;-80
2021/01/13 09:01:07;;;;;;;8.47;5.40;;;5.20;99.90;;;;;;6105968;23;20435;-80
2021/01/13 09:03:50;;;;;;;11.67;5.57;;;5.10;99.90;;;;;;6120375;23;20435;-81
2021/01/13 09:06:17;;;;;;;7.20;5.07;;;5.20;99.90;;;;;;6118658;23;20394;-80
2021/01/13 09:08:49;;;;;;;6.53;4.90;;;5.20;99.90;;;;;;6119790;23;20719;-79
2021/01/13 09:11:32;;;;;;;12.13;5.60;;;5.20;99.90;;;;;;6118636;23;20393;-80
2021/01/13 09:14:19;;;;;;;9.77;4.87;;;5.30;99.90;;;;;;6091645;23;20532;-79
2021/01/13 09:16:56;;;;;;;12.90;4.63;;;5.40;99.90;;;;;;6094370;23;20817;-79
2021/01/13 09:19:39;;;;;;;8.63;5.00;;;5.40;99.90;;;;;;6094239;23;20423;-80
2021/01/13 09:22:17;;;;;;;11.77;4.67;;;5.50;99.90;;;;;;6095242;23;20388;-80
2021/01/13 09:24:56;;;;;;;6.97;4.70;;;5.40;99.90;;;;;;6095276;23;20806;-80
2021/01/13 09:27:35;;;;;;;13.60;4.80;;;5.40;99.90;;;;;;6096797;23;20443;-82
2021/01/13 09:30:26;;;;;;;5.90;4.70;;;5.40;99.90;;;;;;6095436;23;20490;-80
2021/01/13 09:32:55;;;;;;;10.00;4.90;;;5.50;99.90;;;;;;6097119;23;20914;-87
2021/01/13 09:36:03;;;;;;;12.03;5.03;;;5.50;99.90;;;;;;6103262;23;20947;-83
2021/01/13 09:39:26;;;;;;;8.93;5.50;;;5.60;99.90;;;;;;6099193;23;20415;-82
2021/01/13 09:42:38;;;;;;;10.07;6.87;;;5.70;99.90;;;;;;6099825;23;20502;-81
2021/01/13 09:45:14;;;;;;;9.00;5.67;;;5.70;99.90;;;;;;6103963;23;20518;-81
2021/01/13 09:47:48;;;;;;;8.23;4.43;;;6.10;99.90;;;;;;6121155;23;20478;-76
2021/01/13 09:50:31;;;;;;;9.13;5.17;;;6.70;99.90;;;;;;6120440;23;20420;-80
2021/01/13 09:53:49;;;;;;;8.80;5.40;;;6.90;99.90;;;;;;6122463;23;20482;-80
2021/01/13 09:56:17;;;;;;;10.30;4.77;;;7.00;99.90;;;;;;6035903;23;20443;-80
2021/01/13 09:58:59;;;;;;;11.73;5.63;;;7.60;99.90;;;;;;6129238;23;20415;-78
2021/01/13 10:01:33;;;;;;;6.73;5.20;;;7.80;99.90;;;;;;6129723;23;20406;-79
2021/01/13 10:04:03;;;;;;;12.77;5.40;;;7.50;99.90;;;;;;6129632;23;21026;-79
2021/01/13 10:06:31;;;;;;;6.03;4.60;;;7.20;99.90;;;;;;6105710;23;20400;-77
2021/01/13 10:09:18;;;;;;;6.77;5.33;;;6.90;99.90;;;;;;6110429;23;20510;-79
2021/01/13 10:11:54;;;;;;;9.20;5.20;;;6.60;99.90;;;;;;6097369;23;20412;-79
2021/01/13 10:14:29;;;;;;;13.50;7.17;;;6.60;99.90;;;;;;6121194;23;20434;-79
2021/01/13 10:16:56;;;;;;;8.10;5.97;;;6.40;99.90;;;;;;6121845;23;20423;-79
2021/01/13 10:19:37;;;;;;;8.80;5.60;;;6.40;99.90;;;;;;6121569;23;20415;-80
2021/01/13 10:22:05;;;;;;;10.43;5.80;;;6.50;99.90;;;;;;6105947;23;20404;-78
2021/01/13 10:24:41;;;;;;;9.93;6.20;;;6.60;99.90;;;;;;6142635;23;20835;-78
2021/01/13 10:27:10;;;;;;;8.63;5.57;;;6.50;99.90;;;;;;6117387;23;20486;-79
2021/01/13 10:29:43;;;;;;;8.93;5.70;;;6.50;99.90;;;;;;6103436;23;20491;-81
2021/01/13 10:32:14;;;;;;;8.83;6.47;;;6.30;99.90;;;;;;6095037;23;20941;-79
2021/01/13 10:34:54;;;;;;;8.90;6.10;;;6.20;99.90;;;;;;6070884;23;20499;-79
2021/01/13 10:37:21;;;;;;;11.50;5.40;;;6.20;99.90;;;;;;6097175;23;20938;-81
2021/01/13 10:40:11;;;;;;;8.77;6.17;;;6.20;99.90;;;;;;6070924;23;20653;-79
2021/01/13 10:43:30;;;;;;;10.30;5.37;;;6.20;99.90;;;;;;6094309;23;20412;-80
2021/01/13 10:46:01;;;;;;;10.13;5.70;;;6.20;99.90;;;;;;6091175;23;20468;-79
2021/01/13 10:48:28;;;;;;;12.50;5.77;;;6.20;99.90;;;;;;6094879;23;20411;-80
2021/01/13 10:51:21;;;;;;;11.90;5.77;;;6.20;99.90;;;;;;6068448;23;20802;-82
2021/01/13 10:53:58;;;;;;;11.17;6.53;;;6.20;99.90;;;;;;6068493;23;20519;-81
2021/01/13 10:56:33;;;;;;;16.33;6.77;;;6.30;99.90;;;;;;6092840;23;20429;-79
2021/01/13 10:59:06;;;;;;;10.50;5.60;;;6.20;99.90;;;;;;6073640;23;20449;-80
2021/01/13 11:01:34;;;;;;;9.77;5.80;;;6.30;99.90;;;;;;6068367;23;20407;-81
2021/01/13 11:04:01;;;;;;;11.17;6.30;;;6.30;99.90;;;;;;6093822;23;21013;-81
2021/01/13 11:06:29;;;;;;;20.33;5.93;;;6.30;99.90;;;;;;6104066;23;20389;-81
2021/01/13 11:12:37;;;;;;;12.00;5.40;;;6.30;99.90;;;;;;6096770;23;20436;-79
2021/01/13 11:15:07;;;;;;;12.13;7.20;;;6.20;99.90;;;;;;6086939;23;20441;-80
2021/01/13 11:17:37;;;;;;;11.50;6.37;;;6.20;99.90;;;;;;6088728;23;20400;-80
2021/01/13 11:20:27;;;;;;;;;;;;;;;;;;;;;
2021/01/13 11:23:02;;;;;;;9.33;5.17;;;6.20;99.90;;;;;;6109022;23;20483;-80
2021/01/13 11:25:39;;;;;;;11.50;5.70;;;6.30;99.90;;;;;;6069273;23;20464;-79
2021/01/13 11:28:44;;;;;;;11.60;5.90;;;6.30;99.90;;;;;;6078482;23;20434;-81
2021/01/13 11:31:22;;;;;;;10.40;4.60;;;6.40;99.90;;;;;;6068538;23;20412;-80
2021/01/13 11:33:52;;;;;;;12.00;6.60;;;6.40;99.90;;;;;;6091024;23;20468;-80
2021/01/13 11:36:29;;;;;;;9.43;5.30;;;6.40;99.90;;;;;;6089829;23;20407;-81
2021/01/13 11:39:50;;;;;;;9.60;4.93;;;6.40;99.90;;;;;;6062438;23;20425;-80
2021/01/13 11:43:38;;;;;;;8.63;4.80;;;6.50;99.90;;;;;;6051380;23;20431;-79
2021/01/13 11:46:30;;;;;;;11.07;4.57;;;6.40;99.90;;;;;;6089221;23;20456;-81
2021/01/13 11:49:44;;;;;;;9.13;4.90;;;6.40;99.90;;;;;;6099035;23;20474;-79
2021/01/13 11:52:28;;;;;;;10.57;4.63;;;6.40;99.90;;;;;;5955007;24;20425;-78
2021/01/13 11:55:02;;;;;;;10.77;5.00;;;6.40;99.90;;;;;;6088137;23;20459;-79
2021/01/13 11:58:55;;;;;;;;;;;;;;;;;;;;;
2021/01/13 12:05:49;;;;;;;;;;;;;;;;;;;;;
2021/01/13 12:09:32;;;;;;;5.97;4.30;;;6.30;99.90;;;;;;6065971;23;20463;-79
2021/01/13 12:12:54;;;;;;;6.87;4.10;;;6.20;99.90;;;;;;6124735;23;20478;-81
2021/01/13 12:15:24;;;;;;;9.60;3.90;;;6.20;99.90;;;;;;6086701;23;20455;-80
2021/01/13 12:18:41;;;;;;;;;;;;;;;;;;;;;
2021/01/13 12:21:28;;;;;;;4.60;3.27;;;6.20;99.90;;;;;;6128251;23;20483;-81
2021/01/13 12:24:14;;;;;;;11.10;3.33;;;6.30;99.90;;;;;;6121584;23;20741;-81
2021/01/13 12:27:18;;;;;;;7.80;3.87;;;6.40;99.90;;;;;;6120679;23;20433;-82
2021/01/13 12:29:47;;;;;;;5.63;3.40;;;6.40;99.90;;;;;;6119869;23;20416;-80
2021/01/13 12:32:15;;;;;;;7.57;3.47;;;6.40;99.90;;;;;;6120245;23;20419;-80
2021/01/13 12:34:51;;;;;;;9.30;3.27;;;6.50;99.90;;;;;;6121326;23;20440;-81
2021/01/13 12:37:30;;;;;;;4.87;3.70;;;6.50;99.90;;;;;;6127436;23;20434;-81
2021/01/13 12:39:57;;;;;;;6.07;4.03;;;6.50;99.90;;;;;;6120383;23;20511;-80
2021/01/13 12:42:30;;;;;;;6.90;3.50;;;6.50;99.90;;;;;;6118995;23;20430;-81
2021/01/13 12:45:00;;;;;;;8.27;4.17;;;6.50;99.90;;;;;;6122951;23;20774;-79
2021/01/13 12:47:27;;;;;;;11.13;3.93;;;6.40;99.90;;;;;;6141568;23;20466;-81
2021/01/13 12:49:55;;;;;;;10.03;4.47;;;6.40;99.90;;;;;;6141549;23;20412;-81
2021/01/13 12:52:21;;;;;;;6.27;3.80;;;6.40;99.90;;;;;;6131260;23;20407;-80
2021/01/13 12:54:50;;;;;;;5.50;3.20;;;6.30;99.90;;;;;;6123694;23;20443;-80
2021/01/13 12:57:16;;;;;;;7.60;3.93;;;6.30;99.90;;;;;;6121229;23;20866;-81
2021/01/13 12:59:43;;;;;;;5.93;3.33;;;6.40;99.90;;;;;;6124584;23;20751;-82
2021/01/13 13:02:09;;;;;;;7.67;3.63;;;6.40;99.90;;;;;;6127222;23;20415;-79
2021/01/13 13:04:36;;;;;;;8.87;3.87;;;6.50;99.90;;;;;;6125214;23;20452;-79
2021/01/13 13:07:02;;;;;;;7.33;3.67;;;6.40;99.90;;;;;;6123759;23;20415;-80
2021/01/13 13:09:29;;;;;;;10.63;4.30;;;6.40;99.90;;;;;;6125066;23;20621;-81
2021/01/13 13:11:56;;;;;;;6.63;3.87;;;6.30;99.90;;;;;;6127082;23;20483;-83
2021/01/13 13:14:22;;;;;;;7.10;4.07;;;6.30;99.90;;;;;;6125438;23;20436;-82
2021/01/13 13:16:49;;;;;;;11.33;4.00;;;6.30;99.90;;;;;;6125711;23;20413;-83
2021/01/13 13:19:23;;;;;;;7.63;4.47;;;6.30;99.90;;;;;;6129803;23;20451;-80
2021/01/13 13:21:50;;;;;;;10.37;4.13;;;6.20;99.90;;;;;;6125628;23;20769;-81
2021/01/13 13:24:17;;;;;;;11.40;3.80;;;6.20;99.90;;;;;;6126939;23;20494;-83
2021/01/13 13:26:44;;;;;;;5.17;4.33;;;6.20;99.90;;;;;;6125525;23;20419;-83
2021/01/13 13:29:10;;;;;;;6.20;3.87;;;6.20;99.90;;;;;;6130144;23;20431;-80
2021/01/13 13:31:40;;;;;;;8.57;4.60;;;6.20;99.90;;;;;;6136448;23;20496;-80
2021/01/13 13:34:11;;;;;;;9.20;4.23;;;6.20;99.90;;;;;;6135230;23;20438;-82
2021/01/13 13:36:38;;;;;;;11.37;4.47;;;6.20;99.90;;;;;;6126832;23;20868;-83
2021/01/13 13:39:04;;;;;;;6.50;3.60;;;6.20;99.90;;;;;;6128229;23;20479;-82
2021/01/13 13:41:34;;;;;;;7.70;5.80;;;6.20;99.90;;;;;;6125868;23;20506;-81
2021/01/13 13:44:00;;;;;;;6.53;3.77;;;6.20;99.90;;;;;;6126909;23;20442;-82
2021/01/13 13:46:26;;;;;;;8.80;3.90;;;6.20;99.90;;;;;;6133539;23;20450;-80
2021/01/13 13:48:56;;;;;;;12.33;4.20;;;6.20;99.90;;;;;;6135953;23;20498;-79
2021/01/13 13:51:25;;;;;;;6.67;3.03;;;6.20;99.90;;;;;;6137114;23;20475;-80